This is the latest recevied weather packets stored in our database for station/object K6MBY. If no packets are shown the sender has not sent any weather packets the latest 10 day(s).
| Time | Temp. | Humidity | Pressure | Rain* | Wind** | Luminosity | Snow |
|---|---|---|---|---|---|---|---|
| 1777518577 | 10.56° C | 86% | 1025.7 hPa | 0 mm | - | 11 W/m² | - |
| 1777518272 | 10.56° C | 87% | 1026.1 hPa | 0 mm | - | 15 W/m² | - |
| 1777517969 | 10.56° C | 87% | 1025.9 hPa | 0 mm | - | 19 W/m² | - |
| 1777517665 | 10.56° C | 87% | 1025.9 hPa | 0 mm | - | 22 W/m² | - |
| 1777517362 | 10.56° C | 86% | 1026 hPa | 0 mm | - | 25 W/m² | - |
| 1777517061 | 10.56° C | 86% | 1025.8 hPa | 0 mm | - | 29 W/m² | - |
| 1777516759 | 10.56° C | 86% | 1026 hPa | 0 mm | - | 31 W/m² | - |
| 1777516454 | 11.11° C | 86% | 1026.2 hPa | 0 mm | - | 34 W/m² | - |
| 1777516149 | 11.11° C | 85% | 1025.9 hPa | 0 mm | - | 38 W/m² | - |
| 1777515848 | 11.11° C | 84% | 1026.1 hPa | 0 mm | - | 45 W/m² | - |
| 1777515543 | 11.67° C | 83% | 1026.1 hPa | 0 mm | - | 42 W/m² | - |
| 1777515241 | 11.67° C | 81% | 1026.1 hPa | 0 mm | - | 61 W/m² | - |
| 1777514936 | 12.22° C | 81% | 1026.1 hPa | 0 mm | - | 68 W/m² | - |
| 1777514633 | 12.78° C | 80% | 1026.1 hPa | 0 mm | - | 76 W/m² | - |
| 1777514330 | 12.78° C | 80% | 1026.2 hPa | 0 mm | - | 86 W/m² | - |
| 1777514027 | 13.33° C | 79% | 1026.3 hPa | 0 mm | - | 94 W/m² | - |
| 1777513725 | 13.89° C | 77% | 1026.1 hPa | 0 mm | - | 104 W/m² | - |
| 1777513422 | 14.44° C | 74% | 1026.1 hPa | 0 mm | - | 118 W/m² | - |
| 1777513118 | 15.56° C | 65% | 1026.3 hPa | 0 mm | - | 130 W/m² | - |
| 1777512813 | 16.11° C | 61% | 1026.1 hPa | 0 mm | - | 143 W/m² | - |
| 1777512510 | 17.22° C | 59% | 1026.3 hPa | 0 mm | - | 157 W/m² | - |
| 1777512207 | 16.67° C | 58% | 1026.3 hPa | 0 mm | - | 170 W/m² | - |
| 1777511905 | 17.22° C | 56% | 1026.3 hPa | 0 mm | - | 185 W/m² | - |
| 1777511602 | 17.22° C | 56% | 1026.4 hPa | 0 mm | - | 199 W/m² | - |
| 1777511300 | 17.22° C | 57% | 1026.2 hPa | 0 mm | - | 215 W/m² | - |
* Rain latest hour (hover to see other rain measurements)
** Current wind speed in m/s (hover to see current wind gust speed)